Time;durP1;ratioP1;P1;durP2;ratioP2;P2;SDS_P1;SDS_P2;PMS_P1;PMS_P2;Temp;Humidity;BMP_temperature;BMP_pressure;BME280_temperature;BME280_humidity;BME280_pressure;Samples;Min_cycle;Max_cycle;Signal;HPM_P1;HPM_P2
2022/10/11 00:00:13;;;;;;;;;;;20.00;65.30;;;;;;5112406;28;19924;-63
2022/10/11 00:02:38;;;;;;;;;;;20.00;65.30;;;;;;5113512;28;19923;-63
2022/10/11 00:05:04;;;;;;;;;;;20.00;65.40;;;;;;5113383;28;19924;-64
2022/10/11 00:07:30;;;;;;;;;;;20.00;65.30;;;;;;5112141;28;19962;-64
2022/10/11 00:09:55;;;;;;;;;;;20.00;65.30;;;;;;5113171;28;20011;-64
2022/10/11 00:12:21;;;;;;;;;;;20.00;65.20;;;;;;5112904;28;20006;-63
2022/10/11 00:14:46;;;;;;;;;;;20.00;65.20;;;;;;5112199;28;20420;-63
2022/10/11 00:17:12;;;;;;;;;;;20.00;65.20;;;;;;5112691;28;20014;-64
2022/10/11 00:19:37;;;;;;;;;;;20.00;65.20;;;;;;5113172;28;20394;-64
2022/10/11 00:22:03;;;;;;;;;;;20.00;65.20;;;;;;5112460;28;20359;-64
2022/10/11 00:24:28;;;;;;;;;;;19.90;65.20;;;;;;5112910;28;19928;-64
2022/10/11 00:26:53;;;;;;;;;;;19.90;65.20;;;;;;5112225;28;19919;-63
2022/10/11 00:29:19;;;;;;;;;;;19.90;65.20;;;;;;5112627;28;19928;-64
2022/10/11 00:31:44;;;;;;;;;;;19.90;65.10;;;;;;5112935;28;19927;-63
2022/10/11 00:34:11;;;;;;;;;;;19.90;65.10;;;;;;5115435;28;20074;-64
2022/10/11 00:36:36;;;;;;;;;;;19.90;65.10;;;;;;5116898;28;19923;-63
2022/10/11 00:39:03;;;;;;;;;;;19.90;65.10;;;;;;5116863;28;19924;-63
2022/10/11 00:41:28;;;;;;;;;;;19.90;65.10;;;;;;5115591;28;19928;-64
2022/10/11 00:44:12;;;;;;;;;;;19.90;65.00;;;;;;5116677;28;19931;-63
2022/10/11 00:46:37;;;;;;;;;;;19.90;65.10;;;;;;5117205;28;19924;-64
2022/10/11 00:49:11;;;;;;;;;;;19.90;65.00;;;;;;5097846;28;19930;-63
2022/10/11 00:51:38;;;;;;;;;;;19.90;65.10;;;;;;5098617;28;19931;-64
2022/10/11 00:54:03;;;;;;;;;;;19.90;65.00;;;;;;5098300;28;19969;-64
2022/10/11 00:56:33;;;;;;;;;;;19.80;64.90;;;;;;5115157;28;19924;-63
2022/10/11 00:58:59;;;;;;;;;;;19.90;64.90;;;;;;5098173;28;19925;-64
2022/10/11 01:01:25;;;;;;;;;;;19.90;65.00;;;;;;5097953;28;20030;-64
2022/10/11 01:03:50;;;;;;;;;;;19.90;64.90;;;;;;5115771;28;20100;-64
2022/10/11 01:06:16;;;;;;;;;;;19.80;64.90;;;;;;5116038;28;19934;-64
2022/10/11 01:08:41;;;;;;;;;;;19.80;64.90;;;;;;5116372;28;19947;-64
2022/10/11 01:11:09;;;;;;;;;;;19.80;64.80;;;;;;5115324;28;19924;-65
2022/10/11 01:13:38;;;;;;;;;;;19.80;64.70;;;;;;5080828;28;20402;-64
2022/10/11 01:16:03;;;;;;;;;;;19.80;64.80;;;;;;5115236;28;19923;-64
2022/10/11 01:18:41;;;;;;;;;;;19.80;64.80;;;;;;5115519;28;19931;-64
2022/10/11 01:21:06;;;;;;;;;;;19.80;64.80;;;;;;5115597;28;20033;-63
2022/10/11 01:23:38;;;;;;;;;;;19.80;64.70;;;;;;5115294;28;19989;-64
2022/10/11 01:26:03;;;;;;;;;;;19.80;64.80;;;;;;5115939;28;20446;-64
2022/10/11 01:28:38;;;;;;;;;;;19.70;64.60;;;;;;5115671;28;20007;-63
2022/10/11 01:31:07;;;;;;;;;;;19.80;64.70;;;;;;5115399;28;19923;-63
2022/10/11 01:33:40;;;;;;;;;;;19.80;64.80;;;;;;5097222;28;20337;-64
2022/10/11 01:36:26;;;;;;;;;;;19.80;64.70;;;;;;5115949;28;19971;-64
2022/10/11 01:38:55;;;;;;;;;;;19.70;64.70;;;;;;5114419;28;19931;-63
2022/10/11 01:41:22;;;;;;;;;;;19.70;64.60;;;;;;5115439;28;19965;-63
2022/10/11 01:43:48;;;;;;;;;;;19.70;64.60;;;;;;5096877;28;20457;-63
2022/10/11 01:46:13;;;;;;;;;;;19.70;64.70;;;;;;5114378;28;20325;-63
2022/10/11 01:49:08;;;;;;;;;;;19.70;64.60;;;;;;5115409;28;20432;-64
2022/10/11 01:51:38;;;;;;;;;;;19.70;64.70;;;;;;5092639;28;20452;-63
2022/10/11 01:54:04;;;;;;;;;;;19.70;64.60;;;;;;5080161;28;19924;-64
2022/10/11 01:56:43;;;;;;;;;;;19.70;64.60;;;;;;5114888;28;19924;-64
2022/10/11 01:59:18;;;;;;;;;;;19.70;64.50;;;;;;5095984;28;20456;-64
2022/10/11 02:01:47;;;;;;;;;;;19.70;64.50;;;;;;5096405;28;19924;-64
2022/10/11 02:04:23;;;;;;;;;;;19.70;64.60;;;;;;5095404;28;20382;-64
2022/10/11 02:07:00;;;;;;;;;;;19.70;64.50;;;;;;5095438;28;20023;-64
2022/10/11 02:09:30;;;;;;;;;;;19.60;64.50;;;;;;5114203;28;19927;-64
2022/10/11 02:11:56;;;;;;;;;;;19.60;64.60;;;;;;5096817;28;20018;-64
2022/10/11 02:14:23;;;;;;;;;;;19.60;64.50;;;;;;5095559;28;19928;-63
2022/10/11 02:16:50;;;;;;;;;;;19.60;64.40;;;;;;5096786;28;19927;-64
2022/10/11 02:19:17;;;;;;;;;;;19.60;64.50;;;;;;5096448;28;20295;-64
2022/10/11 02:21:43;;;;;;;;;;;19.60;64.40;;;;;;5114307;28;19924;-64
2022/10/11 02:24:10;;;;;;;;;;;19.60;64.40;;;;;;5114606;28;19928;-64
2022/10/11 02:26:35;;;;;;;;;;;19.60;64.40;;;;;;5095648;28;20287;-64
2022/10/11 02:29:02;;;;;;;;;;;19.60;64.40;;;;;;5114907;28;20355;-64
2022/10/11 02:31:28;;;;;;;;;;;19.60;64.40;;;;;;5114441;28;19928;-64
2022/10/11 02:33:59;;;;;;;;;;;19.60;64.40;;;;;;5095382;28;20379;-64
2022/10/11 02:36:46;;;;;;;;;;;19.60;64.40;;;;;;5114193;28;19967;-64
2022/10/11 02:39:20;;;;;;;;;;;19.60;64.40;;;;;;5096171;28;19924;-64
2022/10/11 02:41:46;;;;;;;;;;;19.50;64.30;;;;;;5095648;28;19923;-64
2022/10/11 02:44:12;;;;;;;;;;;19.50;64.30;;;;;;5114183;28;19924;-64
2022/10/11 02:46:38;;;;;;;;;;;19.60;64.30;;;;;;5096311;28;19959;-64
2022/10/11 02:49:03;;;;;;;;;;;19.50;64.30;;;;;;5113748;28;19970;-64
2022/10/11 02:51:29;;;;;;;;;;;19.60;64.40;;;;;;5095625;28;19931;-63
2022/10/11 02:53:54;;;;;;;;;;;19.50;64.90;;;;;;5114183;28;19928;-64
2022/10/11 02:56:20;;;;;;;;;;;19.50;64.20;;;;;;5112102;28;19923;-64
2022/10/11 02:58:46;;;;;;;;;;;19.50;64.20;;;;;;5114340;28;20018;-64
2022/10/11 03:01:11;;;;;;;;;;;19.50;64.20;;;;;;5113617;28;19920;-64
2022/10/11 03:03:36;;;;;;;;;;;19.50;64.30;;;;;;5113240;28;19924;-64
2022/10/11 03:06:02;;;;;;;;;;;19.50;64.20;;;;;;5114203;28;19924;-64
2022/10/11 03:08:28;;;;;;;;;;;19.50;64.30;;;;;;5113649;28;19931;-64
2022/10/11 03:10:53;;;;;;;;;;;19.50;64.20;;;;;;5113462;28;19971;-64
2022/10/11 03:13:19;;;;;;;;;;;19.50;64.40;;;;;;5113501;28;20247;-64
2022/10/11 03:15:48;;;;;;;;;;;19.50;64.30;;;;;;5112999;28;19931;-64
2022/10/11 03:18:13;;;;;;;;;;;19.50;64.30;;;;;;5095303;28;20394;-64
2022/10/11 03:20:39;;;;;;;;;;;19.50;64.30;;;;;;5113910;28;19924;-64
2022/10/11 03:23:04;;;;;;;;;;;19.50;64.30;;;;;;5113245;28;19923;-64
2022/10/11 03:25:30;;;;;;;;;;;19.50;64.20;;;;;;5113338;28;19924;-64
2022/10/11 03:27:55;;;;;;;;;;;19.50;64.30;;;;;;5113469;28;20290;-64
2022/10/11 03:30:21;;;;;;;;;;;19.50;64.20;;;;;;5112914;28;20355;-64
2022/10/11 03:32:46;;;;;;;;;;;19.50;64.30;;;;;;5113460;28;19952;-64
2022/10/11 03:35:12;;;;;;;;;;;19.50;64.30;;;;;;5113051;28;19993;-63
2022/10/11 03:37:37;;;;;;;;;;;19.50;64.30;;;;;;5094570;28;19924;-64
2022/10/11 03:40:04;;;;;;;;;;;19.50;64.30;;;;;;5113735;28;19963;-64
2022/10/11 03:42:29;;;;;;;;;;;19.50;64.30;;;;;;5113320;28;19928;-63
2022/10/11 03:44:56;;;;;;;;;;;19.50;64.30;;;;;;5112769;28;19924;-64
2022/10/11 03:47:21;;;;;;;;;;;19.50;64.20;;;;;;5112927;28;20268;-64
2022/10/11 03:49:46;;;;;;;;;;;19.50;64.30;;;;;;5113478;28;20386;-64
2022/10/11 03:52:12;;;;;;;;;;;19.50;64.20;;;;;;5112494;28;19923;-64
2022/10/11 03:54:37;;;;;;;;;;;19.60;64.20;;;;;;5113533;28;20029;-64
2022/10/11 03:57:03;;;;;;;;;;;19.60;64.30;;;;;;5113059;28;19930;-63
2022/10/11 03:59:28;;;;;;;;;;;19.60;64.20;;;;;;5112290;28;19950;-64
2022/10/11 04:01:54;;;;;;;;;;;19.60;64.20;;;;;;5099373;28;19924;-64
2022/10/11 04:04:19;;;;;;;;;;;19.60;64.30;;;;;;5110745;28;20335;-64
2022/10/11 04:06:45;;;;;;;;;;;19.60;64.10;;;;;;5113908;28;20025;-64
2022/10/11 04:09:10;;;;;;;;;;;19.60;64.10;;;;;;5116775;28;19924;-64
2022/10/11 04:11:36;;;;;;;;;;;19.60;64.10;;;;;;5117422;28;20434;-64
2022/10/11 04:14:01;;;;;;;;;;;19.60;64.10;;;;;;5116336;28;19931;-64
2022/10/11 04:16:27;;;;;;;;;;;19.60;64.10;;;;;;5117181;28;19963;-64
2022/10/11 04:18:52;;;;;;;;;;;19.60;64.10;;;;;;5117032;28;19934;-64
2022/10/11 04:21:18;;;;;;;;;;;19.60;64.00;;;;;;5116439;28;19967;-64
2022/10/11 04:23:43;;;;;;;;;;;19.70;64.00;;;;;;5117207;28;20271;-64
2022/10/11 04:26:09;;;;;;;;;;;19.70;64.00;;;;;;5116220;28;19928;-64
2022/10/11 04:28:34;;;;;;;;;;;19.70;64.00;;;;;;5117255;28;19931;-64
2022/10/11 04:31:00;;;;;;;;;;;19.70;64.00;;;;;;5116952;28;20022;-64
2022/10/11 04:33:25;;;;;;;;;;;19.70;63.90;;;;;;5115764;28;20326;-63
2022/10/11 04:35:54;;;;;;;;;;;19.70;63.90;;;;;;5116909;28;19931;-63
2022/10/11 04:38:20;;;;;;;;;;;19.70;63.90;;;;;;5116820;28;19924;-64
2022/10/11 04:40:46;;;;;;;;;;;19.70;63.90;;;;;;5116309;28;19924;-63
2022/10/11 04:43:11;;;;;;;;;;;19.70;63.80;;;;;;5116312;28;19931;-64
2022/10/11 04:45:37;;;;;;;;;;;19.70;63.90;;;;;;5116613;28;20002;-64
2022/10/11 04:48:02;;;;;;;;;;;19.70;63.90;;;;;;5097805;28;19923;-63
2022/10/11 04:50:28;;;;;;;;;;;19.70;63.80;;;;;;5116235;28;19932;-64
2022/10/11 04:52:53;;;;;;;;;;;19.70;63.80;;;;;;5116552;28;19924;-64
2022/10/11 04:55:19;;;;;;;;;;;19.70;63.80;;;;;;5115459;28;19928;-63
2022/10/11 04:57:44;;;;;;;;;;;19.80;63.80;;;;;;5116663;28;19928;-64
2022/10/11 05:00:10;;;;;;;;;;;19.80;63.80;;;;;;5116097;28;19928;-64
2022/10/11 05:02:35;;;;;;;;;;;19.80;63.80;;;;;;5115563;28;19924;-64
2022/10/11 05:05:01;;;;;;;;;;;19.80;63.80;;;;;;5116598;28;20019;-64
2022/10/11 05:07:26;;;;;;;;;;;19.80;63.70;;;;;;5116018;28;19980;-64
2022/10/11 05:09:52;;;;;;;;;;;19.80;63.70;;;;;;5115768;28;19924;-64
2022/10/11 05:12:17;;;;;;;;;;;19.80;63.70;;;;;;5115646;28;20011;-64
2022/10/11 05:14:43;;;;;;;;;;;19.80;63.70;;;;;;5116054;28;20366;-64
2022/10/11 05:17:08;;;;;;;;;;;19.80;63.70;;;;;;5096431;28;19932;-64
2022/10/11 05:19:34;;;;;;;;;;;19.80;63.70;;;;;;5115410;28;19931;-64
2022/10/11 05:21:59;;;;;;;;;;;19.80;63.60;;;;;;5115934;28;20002;-64
2022/10/11 05:24:25;;;;;;;;;;;19.80;63.60;;;;;;5114937;28;19927;-64
2022/10/11 05:26:50;;;;;;;;;;;19.80;63.60;;;;;;5116035;28;20084;-64
2022/10/11 05:29:16;;;;;;;;;;;19.80;63.60;;;;;;5114805;28;19931;-64
2022/10/11 05:31:42;;;;;;;;;;;19.80;63.60;;;;;;5115838;28;19924;-64
2022/10/11 05:34:07;;;;;;;;;;;19.80;63.60;;;;;;5115074;28;20336;-64
2022/10/11 05:36:33;;;;;;;;;;;19.80;63.60;;;;;;5097015;28;19924;-63
2022/10/11 05:38:58;;;;;;;;;;;19.80;63.60;;;;;;5116054;28;19931;-65
2022/10/11 05:41:24;;;;;;;;;;;19.80;63.60;;;;;;5115395;28;20367;-65
2022/10/11 05:43:49;;;;;;;;;;;19.80;63.60;;;;;;5114727;28;20034;-64
2022/10/11 05:46:14;;;;;;;;;;;19.80;63.60;;;;;;5115005;28;20390;-64
2022/10/11 05:48:40;;;;;;;;;;;19.80;63.60;;;;;;5115511;28;19963;-64
2022/10/11 05:51:06;;;;;;;;;;;19.80;63.60;;;;;;5114574;28;20295;-64
2022/10/11 05:53:31;;;;;;;;;;;19.80;63.60;;;;;;5115392;28;19927;-64
2022/10/11 05:55:57;;;;;;;;;;;19.70;63.50;;;;;;5115332;28;19930;-63
2022/10/11 05:58:22;;;;;;;;;;;19.80;63.60;;;;;;5113765;28;19923;-63
2022/10/11 06:00:48;;;;;;;;;;;19.80;63.60;;;;;;5115420;28;19924;-63
2022/10/11 06:03:14;;;;;;;;;;;19.70;63.50;;;;;;5115071;28;20275;-64
2022/10/11 06:05:39;;;;;;;;;;;19.80;63.50;;;;;;5114638;28;19934;-64
2022/10/11 06:08:05;;;;;;;;;;;19.70;63.50;;;;;;5114866;28;20006;-62
2022/10/11 06:10:31;;;;;;;;;;;19.80;64.10;;;;;;5114862;28;20382;-63
2022/10/11 06:12:56;;;;;;;;;;;19.80;63.50;;;;;;5113667;28;19923;-62
2022/10/11 06:15:22;;;;;;;;;;;19.80;63.60;;;;;;5114287;28;19949;-62
2022/10/11 06:17:47;;;;;;;;;;;19.80;63.60;;;;;;5114808;28;20352;-62
2022/10/11 06:20:13;;;;;;;;;;;19.80;63.70;;;;;;5113933;28;19919;-62
2022/10/11 06:22:39;;;;;;;;;;;19.80;63.60;;;;;;5096851;28;19931;-63
2022/10/11 06:25:04;;;;;;;;;;;19.80;63.60;;;;;;5114607;28;19966;-62
2022/10/11 06:27:30;;;;;;;;;;;19.80;63.70;;;;;;5113388;28;19966;-63
2022/10/11 06:29:55;;;;;;;;;;;19.80;63.80;;;;;;5114710;28;19924;-63
2022/10/11 06:32:21;;;;;;;;;;;19.80;63.90;;;;;;5114266;28;19927;-63
2022/10/11 06:34:46;;;;;;;;;;;19.80;64.00;;;;;;5113973;28;20057;-63
2022/10/11 06:37:12;;;;;;;;;;;19.80;64.10;;;;;;5114416;28;19924;-63
2022/10/11 06:39:37;;;;;;;;;;;19.80;64.10;;;;;;5114059;28;20000;-64
2022/10/11 06:42:03;;;;;;;;;;;19.80;64.10;;;;;;5114377;28;20262;-64
2022/10/11 06:44:28;;;;;;;;;;;19.90;64.20;;;;;;5113912;28;19931;-64
2022/10/11 06:46:54;;;;;;;;;;;19.90;64.30;;;;;;5113359;28;20055;-64
2022/10/11 06:49:19;;;;;;;;;;;19.90;64.30;;;;;;5114081;28;20429;-64
2022/10/11 06:51:45;;;;;;;;;;;19.90;64.30;;;;;;5114507;28;19926;-64
2022/10/11 06:54:10;;;;;;;;;;;19.90;64.40;;;;;;5113150;28;19930;-64
2022/10/11 06:56:36;;;;;;;;;;;20.00;64.40;;;;;;5114248;28;19927;-63
2022/10/11 06:59:02;;;;;;;;;;;20.00;64.50;;;;;;5113907;28;19924;-64
2022/10/11 07:01:28;;;;;;;;;;;20.00;64.50;;;;;;5113299;28;20020;-63
2022/10/11 07:03:54;;;;;;;;;;;20.00;64.50;;;;;;5114081;28;19924;-63
2022/10/11 07:06:23;;;;;;;;;;;20.00;64.50;;;;;;5113581;28;19929;-64
2022/10/11 07:08:49;;;;;;;;;;;20.00;64.50;;;;;;5113657;28;19953;-63
2022/10/11 07:11:16;;;;;;;;;;;20.00;64.50;;;;;;5115195;28;19924;-64
2022/10/11 07:13:41;;;;;;;;;;;20.10;64.60;;;;;;5114064;28;19981;-63
2022/10/11 07:16:08;;;;;;;;;;;20.10;64.50;;;;;;5113012;28;20029;-63
2022/10/11 07:18:33;;;;;;;;;;;20.10;64.60;;;;;;5113770;28;19924;-63
2022/10/11 07:21:02;;;;;;;;;;;20.10;64.70;;;;;;5114264;28;19950;-64
2022/10/11 07:23:28;;;;;;;;;;;20.10;64.60;;;;;;5112555;28;19923;-63
2022/10/11 07:25:54;;;;;;;;;;;20.10;64.60;;;;;;5114058;28;19965;-63
2022/10/11 07:28:20;;;;;;;;;;;20.10;64.60;;;;;;5113498;28;20386;-63
2022/10/11 07:30:45;;;;;;;;;;;20.10;64.70;;;;;;5113200;28;20056;-64
2022/10/11 07:33:11;;;;;;;;;;;20.10;64.70;;;;;;5112770;28;19967;-63
2022/10/11 07:35:36;;;;;;;;;;;20.20;64.70;;;;;;5113659;28;19924;-63
2022/10/11 07:38:02;;;;;;;;;;;20.20;64.60;;;;;;5113085;28;19931;-63
2022/10/11 07:40:28;;;;;;;;;;;20.20;64.60;;;;;;5113085;28;19981;-63
2022/10/11 07:42:53;;;;;;;;;;;20.20;64.60;;;;;;5112096;28;19952;-65
2022/10/11 07:45:19;;;;;;;;;;;20.20;64.70;;;;;;5112970;28;19935;-65
2022/10/11 07:47:45;;;;;;;;;;;20.20;64.60;;;;;;5113038;28;19924;-65
2022/10/11 07:50:11;;;;;;;;;;;20.20;64.60;;;;;;5111862;28;19924;-64
2022/10/11 07:52:37;;;;;;;;;;;20.20;64.50;;;;;;5113129;28;19930;-64
2022/10/11 07:55:02;;;;;;;;;;;20.20;64.50;;;;;;5113034;28;19931;-63
2022/10/11 07:57:28;;;;;;;;;;;20.30;64.50;;;;;;5111608;28;19924;-65
2022/10/11 07:59:53;;;;;;;;;;;20.20;64.40;;;;;;5113404;28;19931;-64
2022/10/11 08:02:19;;;;;;;;;;;20.30;64.50;;;;;;5113215;28;19930;-65
2022/10/11 08:04:44;;;;;;;;;;;20.30;64.40;;;;;;5112763;28;20393;-64
2022/10/11 08:07:09;;;;;;;;;;;20.20;64.30;;;;;;5113147;28;20018;-64
2022/10/11 08:09:35;;;;;;;;;;;20.20;64.90;;;;;;5113194;28;19930;-64
2022/10/11 08:12:00;;;;;;;;;;;20.30;64.30;;;;;;5112099;28;19924;-64
2022/10/11 08:14:26;;;;;;;;;;;20.30;64.30;;;;;;5112822;28;19928;-64
2022/10/11 08:16:51;;;;;;;;;;;20.30;64.30;;;;;;5113115;28;19930;-65
2022/10/11 08:19:17;;;;;;;;;;;20.30;64.30;;;;;;5112367;28;20393;-65
2022/10/11 08:21:43;;;;;;;;;;;20.30;64.20;;;;;;5113049;28;19919;-64
2022/10/11 08:24:09;;;;;;;;;;;20.30;64.20;;;;;;5112657;28;19924;-64
2022/10/11 08:26:35;;;;;;;;;;;20.30;64.20;;;;;;5111662;28;19931;-64
2022/10/11 08:29:04;;;;;;;;;;;20.30;64.30;;;;;;5105916;28;19924;-64
2022/10/11 08:31:29;;;;;;;;;;;20.30;64.30;;;;;;5092945;28;20722;-64
2022/10/11 08:33:55;;;;;;;;;;;20.30;64.30;;;;;;5090960;28;19924;-65
2022/10/11 08:36:20;;;;;;;;;;;20.30;64.40;;;;;;5093888;28;19950;-65
2022/10/11 08:38:46;;;;;;;;;;;20.30;64.40;;;;;;5096610;28;19924;-64
2022/10/11 08:41:30;;;;;;;;;;;20.30;64.50;;;;;;5110889;28;20256;-66
2022/10/11 08:43:59;;;;;;;;;;;20.30;64.40;;;;;;5093264;28;19949;-63
2022/10/11 08:46:26;;;;;;;;;;;20.40;64.50;;;;;;5092419;28;19924;-65
2022/10/11 08:48:52;;;;;;;;;;;20.40;64.40;;;;;;5093678;28;20010;-64
2022/10/11 08:51:19;;;;;;;;;;;20.40;64.40;;;;;;5093428;28;20008;-65
2022/10/11 08:53:46;;;;;;;;;;;20.40;64.40;;;;;;5094291;28;20438;-64
2022/10/11 08:56:12;;;;;;;;;;;20.40;64.40;;;;;;5096861;28;20389;-66
2022/10/11 08:58:39;;;;;;;;;;;20.40;65.10;;;;;;5115612;28;19970;-66
2022/10/11 09:01:05;;;;;;;;;;;20.40;64.50;;;;;;5079535;28;19924;-66
2022/10/11 09:03:40;;;;;;;;;;;20.40;64.50;;;;;;5115563;28;19927;-64
2022/10/11 09:06:26;;;;;;;;;;;20.50;64.60;;;;;;5097112;28;20014;-66
2022/10/11 09:08:54;;;;;;;;;;;20.50;64.60;;;;;;5114268;28;19924;-65
2022/10/11 09:11:24;;;;;;;;;;;20.50;64.60;;;;;;5080087;28;19928;-65
2022/10/11 09:14:09;;;;;;;;;;;20.50;64.60;;;;;;5115112;28;20425;-65
2022/10/11 09:16:42;;;;;;;;;;;20.50;64.60;;;;;;5055598;28;19923;-65
2022/10/11 09:19:18;;;;;;;;;;;20.60;64.70;;;;;;5096346;28;20006;-65
2022/10/11 09:22:03;;;;;;;;;;;20.50;64.60;;;;;;5079199;28;20405;-65
2022/10/11 09:24:35;;;;;;;;;;;20.60;64.70;;;;;;5096961;28;19927;-65
2022/10/11 09:27:03;;;;;;;;;;;20.50;64.60;;;;;;5097107;28;20383;-66
2022/10/11 09:29:44;;;;;;;;;;;20.60;64.70;;;;;;5096202;28;19924;-64
2022/10/11 09:32:14;;;;;;;;;;;20.60;64.70;;;;;;5114893;28;19927;-65
2022/10/11 09:34:39;;;;;;;;;;;20.60;64.70;;;;;;5114937;28;19928;-64
2022/10/11 09:37:29;;;;;;;;;;;20.60;64.70;;;;;;5096217;28;20392;-64
2022/10/11 09:40:05;;;;;;;;;;;20.60;64.60;;;;;;5095815;28;19930;-64
2022/10/11 09:42:30;;;;;;;;;;;20.60;65.20;;;;;;5095648;28;19927;-64
2022/10/11 09:44:56;;;;;;;;;;;20.60;64.50;;;;;;5115047;28;19923;-63
2022/10/11 09:47:23;;;;;;;;;;;20.60;64.20;;;;;;5114724;28;19924;-64
2022/10/11 09:50:05;;;;;;;;;;;20.60;64.10;;;;;;5095716;28;20717;-64
2022/10/11 09:52:30;;;;;;;;;;;20.50;63.80;;;;;;5112225;28;20362;-66
2022/10/11 09:54:57;;;;;;;;;;;20.50;63.70;;;;;;5114655;28;20422;-62
2022/10/11 09:57:33;;;;;;;;;;;20.50;63.50;;;;;;5113162;28;19931;-65
2022/10/11 09:59:59;;;;;;;;;;;20.50;63.50;;;;;;5101181;28;19924;-66
2022/10/11 10:02:25;;;;;;;;;;;20.50;63.40;;;;;;5114234;28;20375;-66
2022/10/11 10:04:58;;;;;;;;;;;20.50;63.30;;;;;;5095236;28;20026;-65
2022/10/11 10:07:23;;;;;;;;;;;20.50;63.60;;;;;;5109786;28;20360;-67
2022/10/11 10:09:49;;;;;;;;;;;20.50;63.60;;;;;;5098569;28;20014;-67
2022/10/11 10:12:21;;;;;;;;;;;20.40;63.60;;;;;;5092552;28;20257;-66
2022/10/11 10:14:54;;;;;;;;;;;20.50;63.60;;;;;;5066362;28;19924;-66
2022/10/11 10:17:20;;;;;;;;;;;20.40;63.50;;;;;;5096327;28;19995;-67
2022/10/11 10:19:49;;;;;;;;;;;20.40;64.10;;;;;;5094915;28;20375;-66
2022/10/11 10:22:26;;;;;;;;;;;20.40;63.50;;;;;;5078665;28;19923;-66
2022/10/11 10:24:51;;;;;;;;;;;20.40;63.50;;;;;;5095296;28;19924;-66
2022/10/11 10:27:21;;;;;;;;;;;20.40;63.60;;;;;;5113714;28;19928;-66
2022/10/11 10:29:59;;;;;;;;;;;20.40;63.60;;;;;;5098951;28;20015;-65
2022/10/11 10:32:29;;;;;;;;;;;20.40;63.60;;;;;;5092432;28;20019;-65
2022/10/11 10:35:01;;;;;;;;;;;20.40;63.60;;;;;;5083551;28;19924;-65
2022/10/11 10:37:47;;;;;;;;;;;20.40;63.60;;;;;;5092878;28;19928;-66
2022/10/11 10:40:23;;;;;;;;;;;20.40;63.70;;;;;;5092066;28;19931;-65
2022/10/11 10:42:48;;;;;;;;;;;20.40;63.70;;;;;;5075483;28;19924;-65
2022/10/11 10:45:14;;;;;;;;;;;20.40;63.80;;;;;;5104448;28;19924;-65
2022/10/11 10:48:02;;;;;;;;;;;20.40;63.80;;;;;;5094979;28;19980;-65
2022/10/11 10:50:28;;;;;;;;;;;20.40;63.80;;;;;;5113548;28;19924;-65
2022/10/11 10:53:02;;;;;;;;;;;20.40;63.80;;;;;;5113169;28;20007;-65
2022/10/11 10:55:33;;;;;;;;;;;20.30;63.70;;;;;;5095171;28;20033;-65
2022/10/11 10:58:17;;;;;;;;;;;20.40;63.80;;;;;;5113493;28;20443;-66
2022/10/11 11:00:44;;;;;;;;;;;20.30;63.70;;;;;;5112595;28;19928;-65
2022/10/11 11:03:20;;;;;;;;;;;20.30;63.70;;;;;;5095200;28;19934;-66
2022/10/11 11:05:52;;;;;;;;;;;20.30;63.80;;;;;;5113362;28;19966;-65
2022/10/11 11:08:36;;;;;;;;;;;20.30;63.80;;;;;;5111676;28;19924;-67
2022/10/11 11:11:05;;;;;;;;;;;20.30;63.90;;;;;;5111649;28;19927;-68
2022/10/11 11:13:40;;;;;;;;;;;20.30;64.00;;;;;;5093750;28;20022;-67
2022/10/11 11:16:09;;;;;;;;;;;20.30;64.00;;;;;;5092553;28;20310;-66
2022/10/11 11:18:37;;;;;;;;;;;20.30;64.10;;;;;;5094779;28;19928;-66
2022/10/11 11:21:41;;;;;;;;;;;20.30;64.10;;;;;;5093791;28;19932;-66
2022/10/11 11:24:10;;;;;;;;;;;20.30;64.00;;;;;;4981470;28;19968;-66
2022/10/11 11:26:46;;;;;;;;;;;20.30;64.10;;;;;;4991214;28;20433;-67
2022/10/11 11:29:15;;;;;;;;;;;20.40;64.10;;;;;;5012713;28;19930;-67
2022/10/11 11:31:44;;;;;;;;;;;20.40;64.10;;;;;;5093044;28;19931;-67
2022/10/11 11:34:19;;;;;;;;;;;20.30;64.10;;;;;;5091944;28;19928;-67
2022/10/11 11:36:48;;;;;;;;;;;20.30;64.00;;;;;;5091830;28;20209;-67
2022/10/11 11:39:18;;;;;;;;;;;20.30;64.10;;;;;;5074728;28;19985;-67
2022/10/11 11:41:47;;;;;;;;;;;20.30;64.10;;;;;;5075049;28;19924;-66
2022/10/11 11:44:32;;;;;;;;;;;20.30;64.10;;;;;;5073811;28;20015;-67
2022/10/11 11:47:12;;;;;;;;;;;20.30;64.10;;;;;;5091245;28;20296;-65
2022/10/11 11:49:38;;;;;;;;;;;20.30;64.30;;;;;;5085298;28;19969;-63
2022/10/11 11:52:04;;;;;;;;;;;20.40;64.40;;;;;;5080313;28;19924;-63
2022/10/11 11:54:30;;;;;;;;;;;20.30;64.40;;;;;;5073477;28;19934;-67
2022/10/11 11:56:58;;;;;;;;;;;20.30;64.40;;;;;;5091012;28;20248;-66
2022/10/11 11:59:35;;;;;;;;;;;20.40;64.60;;;;;;5091447;28;19928;-69
2022/10/11 12:02:20;;;;;;;;;;;20.40;64.80;;;;;;5098391;28;19928;-68
2022/10/11 12:04:47;;;;;;;;;;;20.40;64.70;;;;;;5091072;28;19977;-70
2022/10/11 12:07:14;;;;;;;;;;;20.40;65.70;;;;;;5074142;28;20374;-70
2022/10/11 12:09:40;;;;;;;;;;;20.40;65.50;;;;;;5075550;28;19928;-68
2022/10/11 12:12:06;;;;;;;;;;;20.50;65.70;;;;;;5095846;28;19924;-66
2022/10/11 12:14:32;;;;;;;;;;;20.50;65.50;;;;;;5092474;28;19924;-68
2022/10/11 12:17:04;;;;;;;;;;;20.50;65.50;;;;;;5092848;28;19939;-68
2022/10/11 12:19:30;;;;;;;;;;;20.60;65.50;;;;;;5072303;28;19946;-67
2022/10/11 12:22:14;;;;;;;;;;;20.50;65.50;;;;;;5097070;28;19958;-69
2022/10/11 12:24:54;;;;;;;;;;;20.60;65.50;;;;;;5090843;28;19924;-71
2022/10/11 12:27:59;;;;;;;;;;;20.60;65.50;;;;;;5076071;28;19928;-69
2022/10/11 12:30:42;;;;;;;;;;;20.60;65.30;;;;;;5015022;28;20347;-67
2022/10/11 12:33:27;;;;;;;;;;;20.60;65.60;;;;;;5017192;28;19926;-67
2022/10/11 12:35:52;;;;;;;;;;;20.60;66.30;;;;;;5071093;28;19924;-67
2022/10/11 12:38:25;;;;;;;;;;;20.60;66.00;;;;;;5075900;28;19924;-65
2022/10/11 12:40:59;;;;;;;;;;;20.60;65.90;;;;;;5077202;28;19940;-65
2022/10/11 12:43:35;;;;;;;;;;;20.60;65.90;;;;;;5081493;28;19931;-67
2022/10/11 12:46:19;;;;;;;;;;;20.60;65.90;;;;;;5076197;28;19960;-66
2022/10/11 12:48:47;;;;;;;;;;;20.70;65.80;;;;;;5095497;28;19924;-71
2022/10/11 12:51:15;;;;;;;;;;;20.60;65.90;;;;;;5094586;28;19924;-71
2022/10/11 12:54:16;;;;;;;;;;;20.60;65.90;;;;;;5102298;28;19928;-68
2022/10/11 12:56:54;;;;;;;;;;;20.70;66.00;;;;;;5012812;28;19980;-68
2022/10/11 12:59:20;;;;;;;;;;;20.70;66.00;;;;;;5084529;28;19931;-69
2022/10/11 13:01:50;;;;;;;;;;;20.70;66.00;;;;;;5076407;28;19931;-69
2022/10/11 13:04:16;;;;;;;;;;;20.70;65.90;;;;;;5099168;28;19924;-67
2022/10/11 13:06:48;;;;;;;;;;;20.80;66.10;;;;;;5093992;28;19966;-69
2022/10/11 13:09:14;;;;;;;;;;;20.80;66.10;;;;;;5078461;28;19967;-66
2022/10/11 13:11:48;;;;;;;;;;;20.90;66.30;;;;;;5094780;28;20363;-67
2022/10/11 13:14:16;;;;;;;;;;;20.90;66.20;;;;;;5079837;28;19959;-66
2022/10/11 13:16:44;;;;;;;;;;;20.90;66.40;;;;;;5094550;28;19931;-67
2022/10/11 13:19:10;;;;;;;;;;;21.00;66.50;;;;;;5093863;28;20447;-66
2022/10/11 13:21:35;;;;;;;;;;;21.00;66.50;;;;;;5075892;28;19924;-67
2022/10/11 13:24:02;;;;;;;;;;;21.00;66.30;;;;;;5099978;28;19931;-67
2022/10/11 13:26:28;;;;;;;;;;;21.10;66.40;;;;;;5093956;28;19973;-67
2022/10/11 13:28:53;;;;;;;;;;;21.10;66.50;;;;;;5093324;28;19931;-68
2022/10/11 13:31:19;;;;;;;;;;;21.10;67.70;;;;;;5108095;28;20363;-68
2022/10/11 13:33:44;;;;;;;;;;;21.20;67.90;;;;;;5113962;28;20072;-66
2022/10/11 13:36:14;;;;;;;;;;;21.20;67.30;;;;;;5113302;28;19950;-66
2022/10/11 13:38:39;;;;;;;;;;;21.30;67.20;;;;;;5113915;28;20298;-67
2022/10/11 13:41:08;;;;;;;;;;;21.30;67.10;;;;;;5115230;28;19931;-66
2022/10/11 13:43:34;;;;;;;;;;;21.40;67.00;;;;;;5114158;28;20016;-69
2022/10/11 13:46:00;;;;;;;;;;;21.40;66.80;;;;;;5096567;28;19981;-72
2022/10/11 13:48:26;;;;;;;;;;;21.50;66.80;;;;;;5096717;28;19935;-69
2022/10/11 13:51:04;;;;;;;;;;;21.60;66.50;;;;;;5114631;28;19931;-68
2022/10/11 13:53:30;;;;;;;;;;;21.60;66.10;;;;;;5114952;28;19967;-75
2022/10/11 13:55:56;;;;;;;;;;;21.60;65.90;;;;;;5114420;28;20063;-72
2022/10/11 13:58:47;;;;;;;;;;;21.60;65.90;;;;;;5114425;28;19924;-72
2022/10/11 14:01:20;;;;;;;;;;;21.70;65.90;;;;;;5109567;28;19924;-73
2022/10/11 14:03:58;;;;;;;;;;;21.70;66.10;;;;;;5095863;28;19919;-75
2022/10/11 14:06:36;;;;;;;;;;;21.70;65.90;;;;;;5114542;28;19924;-64
2022/10/11 14:09:02;;;;;;;;;;;21.80;65.60;;;;;;5096598;28;19935;-66
2022/10/11 14:11:34;;;;;;;;;;;21.80;65.50;;;;;;5113545;28;19924;-65
2022/10/11 14:13:59;;;;;;;;;;;21.80;65.30;;;;;;5114162;28;20306;-65
2022/10/11 14:16:25;;;;;;;;;;;21.80;65.10;;;;;;5114005;28;19928;-66
2022/10/11 14:18:51;;;;;;;;;;;21.80;64.90;;;;;;5114027;28;20068;-66
2022/10/11 14:21:30;;;;;;;;;;;21.80;64.80;;;;;;5095611;28;19923;-66
2022/10/11 14:23:56;;;;;;;;;;;21.80;64.70;;;;;;5095120;28;19923;-66